createdAt,value
2023-03-06T00:03:28.051Z,4.27
2023-03-06T00:08:34.487Z,8.53
2023-03-06T00:13:36.150Z,6.80
2023-03-06T00:18:44.024Z,6.00
2023-03-06T00:23:45.750Z,5.93
2023-03-06T00:28:47.424Z,5.43
2023-03-06T00:33:51.738Z,8.57
2023-03-06T00:38:53.579Z,9.37
2023-03-06T00:43:55.469Z,7.30
2023-03-06T00:48:57.179Z,9.07
2023-03-06T00:53:58.959Z,7.13
2023-03-06T00:59:03.037Z,10.60
2023-03-06T01:04:05.291Z,8.07
2023-03-06T01:09:09.554Z,5.03
2023-03-06T01:14:11.229Z,6.67
2023-03-06T01:19:15.311Z,8.10
2023-03-06T01:24:17.045Z,6.97
2023-03-06T01:29:18.741Z,10.20
2023-03-06T01:34:20.481Z,11.07
2023-03-06T01:39:22.164Z,11.00
2023-03-06T01:44:23.984Z,10.33
2023-03-06T01:49:29.470Z,8.47
2023-03-06T01:54:34.719Z,10.77
2023-03-06T01:59:37.804Z,8.83
2023-03-06T02:04:40.443Z,10.03
2023-03-06T02:09:46.956Z,8.20
2023-03-06T02:14:48.913Z,9.53
2023-03-06T02:20:21.099Z,7.17
2023-03-06T02:25:43.724Z,14.07
2023-03-06T02:30:48.323Z,8.97
2023-03-06T02:35:58.491Z,6.23
2023-03-06T02:41:04.777Z,6.60
2023-03-06T02:46:09.564Z,8.40
2023-03-06T02:51:11.325Z,8.37
2023-03-06T02:56:13.089Z,8.53
2023-03-06T03:01:17.450Z,6.83
2023-03-06T03:06:19.658Z,7.90
2023-03-06T03:11:24.253Z,5.87
2023-03-06T03:16:31.445Z,5.80
2023-03-06T03:21:34.008Z,6.20
2023-03-06T03:26:38.001Z,9.53
2023-03-06T03:31:47.549Z,7.43
2023-03-06T03:36:52.007Z,6.43
2023-03-06T03:41:53.782Z,8.77
2023-03-06T03:46:55.638Z,12.20
2023-03-06T03:52:00.760Z,10.00
2023-03-06T03:57:11.301Z,9.50
2023-03-06T04:02:21.792Z,7.03
2023-03-06T04:07:34.935Z,10.97
2023-03-06T04:12:37.312Z,9.37
2023-03-06T04:17:42.411Z,11.23
2023-03-06T04:22:51.927Z,9.93
2023-03-06T04:27:53.694Z,13.83
2023-03-06T04:32:58.162Z,15.00
2023-03-06T04:38:00.227Z,10.50
2023-03-06T04:43:05.728Z,13.27
2023-03-06T04:48:09.741Z,19.33
2023-03-06T04:53:16.966Z,15.17
2023-03-06T04:58:21.728Z,15.40
2023-03-06T05:03:23.381Z,11.07
2023-03-06T05:08:29.960Z,12.70
2023-03-06T05:13:31.660Z,11.73
2023-03-06T05:18:36.330Z,14.67
2023-03-06T05:23:41.780Z,8.57
2023-03-06T05:28:43.590Z,12.07
2023-03-06T05:33:45.530Z,12.67
2023-03-06T05:38:50.299Z,10.27
2023-03-06T05:43:54.052Z,11.17
2023-03-06T05:48:57.405Z,13.23
2023-03-06T05:54:01.244Z,13.43
2023-03-06T05:59:05.393Z,15.93
2023-03-06T06:04:07.045Z,16.73
2023-03-06T06:09:13.789Z,16.03
2023-03-06T06:14:17.964Z,17.50
2023-03-06T06:19:20.492Z,13.33
2023-03-06T06:24:26.147Z,15.40
2023-03-06T06:29:30.667Z,24.27
2023-03-06T06:34:32.426Z,21.73
2023-03-06T06:39:36.723Z,17.20
2023-03-06T06:44:38.791Z,19.37
2023-03-06T06:49:42.815Z,18.47
2023-03-06T06:54:47.173Z,19.77
2023-03-06T06:59:53.365Z,25.27
2023-03-06T07:05:04.087Z,20.07
2023-03-06T07:10:11.812Z,10.37
2023-03-06T07:15:16.826Z,18.80
2023-03-06T07:20:19.956Z,11.37
2023-03-06T07:25:22.361Z,11.80
2023-03-06T07:30:28.600Z,10.90
2023-03-06T07:35:32.665Z,9.17
2023-03-06T07:40:38.416Z,7.00
2023-03-06T07:45:40.065Z,12.43
2023-03-06T07:50:44.386Z,10.70
2023-03-06T07:55:46.119Z,7.43
2023-03-06T08:00:52.694Z,8.77
2023-03-06T08:06:05.807Z,9.87
2023-03-06T08:11:12.036Z,8.43
2023-03-06T08:16:13.830Z,6.50
2023-03-06T08:21:23.606Z,8.30
2023-03-06T08:26:27.882Z,6.87
2023-03-06T08:31:36.407Z,5.17
2023-03-06T08:36:42.716Z,6.73
2023-03-06T08:41:45.090Z,9.57
2023-03-06T08:46:46.919Z,7.47
2023-03-06T08:51:48.633Z,6.67
2023-03-06T08:56:53.873Z,8.23
2023-03-06T09:01:55.703Z,7.97
2023-03-06T09:07:11.457Z,9.17
2023-03-06T09:12:13.177Z,6.13
2023-03-06T09:17:15.029Z,10.93
2023-03-06T09:22:21.522Z,3.83
2023-03-06T09:27:23.369Z,8.20
2023-03-06T09:32:25.179Z,4.60
2023-03-06T09:37:27.087Z,4.87
2023-03-06T09:42:29.183Z,4.60
2023-03-06T09:47:40.401Z,4.50
2023-03-06T09:53:35.907Z,5.03
2023-03-06T09:58:52.521Z,7.37
2023-03-06T10:04:10.058Z,10.70
2023-03-06T10:09:38.206Z,3.03
2023-03-06T10:14:54.451Z,6.67
2023-03-06T10:19:56.281Z,2.30
2023-03-06T10:25:11.126Z,4.53
2023-03-06T10:30:34.903Z,2.23
2023-03-06T10:35:51.144Z,4.43
2023-03-06T10:41:08.149Z,4.00
2023-03-06T10:46:12.815Z,5.10
2023-03-06T10:51:24.214Z,5.17
2023-03-06T10:56:35.578Z,5.67
2023-03-06T11:01:37.560Z,5.13
2023-03-06T11:06:39.810Z,5.83
2023-03-06T11:11:41.683Z,5.73
2023-03-06T11:16:53.021Z,6.00
2023-03-06T11:22:06.862Z,4.77
2023-03-06T11:27:34.607Z,4.97
2023-03-06T11:32:45.381Z,2.63
2023-03-06T11:38:44.988Z,2.93
2023-03-06T11:43:55.261Z,4.50
2023-03-06T11:49:24.833Z,4.10
2023-03-06T11:54:28.941Z,3.37
2023-03-06T11:59:42.138Z,5.37
2023-03-06T12:05:06.878Z,1.33
2023-03-06T12:10:33.445Z,13.77
2023-03-06T12:16:08.723Z,5.63
2023-03-06T12:21:25.794Z,3.20
2023-03-06T12:27:07.032Z,6.73
2023-03-06T12:32:17.728Z,6.73
2023-03-06T12:37:31.393Z,3.70
2023-03-06T12:43:04.256Z,4.40
2023-03-06T12:48:19.303Z,2.47
2023-03-06T12:53:28.507Z,6.07
2023-03-06T12:58:34.569Z,1.80
2023-03-06T13:03:49.850Z,5.60
2023-03-06T13:09:14.448Z,3.50
2023-03-06T13:14:42.270Z,5.90
2023-03-06T13:20:20.374Z,1.83
2023-03-06T13:25:30.673Z,3.67
2023-03-06T13:30:38.486Z,2.07
2023-03-06T13:35:42.990Z,3.70
2023-03-06T13:40:45.038Z,3.40
2023-03-06T13:45:47.986Z,4.00
2023-03-06T13:50:49.805Z,3.80
2023-03-06T13:56:21.157Z,5.63
2023-03-06T14:01:34.806Z,2.53
2023-03-06T14:06:39.338Z,3.37
2023-03-06T14:11:46.400Z,2.70
2023-03-06T14:16:51.285Z,3.17
2023-03-06T14:21:56.640Z,2.20
2023-03-06T14:26:58.387Z,5.33
2023-03-06T14:32:01.544Z,3.33
2023-03-06T14:37:05.623Z,5.43
2023-03-06T14:42:19.101Z,8.43
2023-03-06T14:47:23.350Z,3.70
2023-03-06T14:52:27.452Z,5.37
2023-03-06T14:57:29.302Z,3.33
2023-03-06T15:02:33.006Z,4.60
2023-03-06T15:07:35.282Z,3.47
2023-03-06T15:12:38.663Z,3.27
2023-03-06T15:17:50.191Z,4.80
2023-03-06T15:22:51.958Z,3.60
2023-03-06T15:28:15.491Z,2.87
2023-03-06T15:33:22.839Z,2.17
2023-03-06T15:38:29.872Z,4.77
2023-03-06T15:43:39.332Z,2.10
2023-03-06T15:48:59.790Z,2.27
2023-03-06T15:54:12.332Z,2.97
2023-03-06T15:59:26.051Z,2.47
2023-03-06T16:04:27.966Z,3.50
2023-03-06T16:09:29.699Z,5.87
2023-03-06T16:14:36.614Z,4.77
2023-03-06T16:19:39.014Z,4.23
2023-03-06T16:24:41.776Z,3.13
2023-03-06T16:29:43.925Z,3.63
2023-03-06T16:34:46.203Z,2.97
2023-03-06T16:39:52.715Z,4.30
2023-03-06T16:44:55.800Z,5.30
2023-03-06T16:50:01.900Z,3.20
2023-03-06T16:55:06.078Z,4.30
2023-03-06T17:00:08.630Z,5.67
2023-03-06T17:05:11.461Z,9.00
2023-03-06T17:10:20.100Z,4.33
2023-03-06T17:15:22.564Z,4.93
2023-03-06T17:20:26.464Z,5.93
2023-03-06T17:25:30.719Z,6.00
2023-03-06T17:30:35.185Z,6.57
2023-03-06T17:35:37.168Z,6.10
2023-03-06T17:40:39.061Z,7.20
2023-03-06T17:45:40.809Z,5.97
2023-03-06T17:50:53.267Z,7.13
2023-03-06T17:55:58.484Z,9.33
2023-03-06T18:01:30.229Z,7.47
2023-03-06T18:06:33.595Z,6.40
2023-03-06T18:11:35.344Z,3.23
2023-03-06T18:16:40.586Z,5.27
2023-03-06T18:21:42.422Z,3.67
2023-03-06T18:26:44.199Z,5.17
2023-03-06T18:31:50.359Z,4.40
2023-03-06T18:36:52.912Z,3.73
2023-03-06T18:41:55.891Z,6.07
2023-03-06T18:46:57.650Z,5.00
2023-03-06T18:51:59.551Z,7.30
2023-03-06T18:57:01.303Z,16.27
2023-03-06T19:02:05.119Z,6.70
2023-03-06T19:07:09.372Z,1.67
2023-03-06T19:12:14.173Z,4.30
2023-03-06T19:17:15.894Z,4.83
2023-03-06T19:22:17.699Z,4.27
2023-03-06T19:27:19.486Z,3.60
2023-03-06T19:32:22.280Z,4.87
2023-03-06T19:37:25.025Z,5.60
2023-03-06T19:42:28.158Z,6.37
2023-03-06T19:47:32.018Z,2.97
2023-03-06T19:52:39.053Z,2.90
2023-03-06T19:57:40.832Z,3.33
2023-03-06T20:02:44.834Z,4.33
2023-03-06T20:07:46.815Z,4.63
2023-03-06T20:12:48.691Z,3.13
2023-03-06T20:17:50.400Z,5.40
2023-03-06T20:22:52.383Z,5.03
2023-03-06T20:27:54.141Z,5.83
2023-03-06T20:32:58.683Z,5.43
2023-03-06T20:38:02.655Z,6.40
2023-03-06T20:43:04.646Z,9.67
2023-03-06T20:48:06.541Z,7.60
2023-03-06T20:53:11.371Z,8.20
2023-03-06T20:58:13.279Z,10.03
2023-03-06T21:03:17.576Z,13.60
2023-03-06T21:08:19.332Z,12.83
2023-03-06T21:13:21.180Z,15.50
2023-03-06T21:18:25.540Z,13.63
2023-03-06T21:23:27.666Z,20.10
2023-03-06T21:28:32.083Z,19.97
2023-03-06T21:33:34.107Z,23.73
2023-03-06T21:38:36.129Z,27.23
2023-03-06T21:43:40.590Z,21.23
2023-03-06T21:48:44.970Z,26.13
2023-03-06T21:53:50.136Z,17.07
2023-03-06T21:58:51.937Z,30.70
2023-03-06T22:03:53.711Z,32.87
2023-03-06T22:08:56.269Z,21.67
2023-03-06T22:13:58.145Z,36.50
2023-03-06T22:18:59.895Z,28.83
2023-03-06T22:24:01.632Z,28.73
2023-03-06T22:29:03.337Z,42.00
2023-03-06T22:34:07.275Z,42.10
2023-03-06T22:39:14.677Z,34.37
2023-03-06T22:44:18.381Z,50.20
2023-03-06T22:49:20.186Z,43.50
2023-03-06T22:54:26.754Z,56.63
2023-03-06T22:59:33.153Z,49.43
2023-03-06T23:04:34.871Z,35.40
2023-03-06T23:09:41.216Z,33.53
2023-03-06T23:15:01.609Z,45.93
2023-03-06T23:20:22.256Z,53.10
2023-03-06T23:25:43.094Z,50.30
2023-03-06T23:30:44.980Z,42.33
2023-03-06T23:35:46.754Z,51.93
2023-03-06T23:40:51.573Z,53.60
2023-03-06T23:45:56.480Z,38.77
2023-03-06T23:51:00.628Z,44.63
2023-03-06T23:56:05.162Z,56.77
